sensor_id;sensor_type;location;lat;lon;timestamp;P1;durP1;ratioP1;P2;durP2;ratioP2
13122;SDS011;6627;50.920;12.050;2024-03-29T00:01:49;4.53;;;1.30;;
13122;SDS011;6627;50.920;12.050;2024-03-29T00:04:15;1.23;;;0.83;;
13122;SDS011;6627;50.920;12.050;2024-03-29T00:06:43;3.87;;;1.30;;
13122;SDS011;6627;50.920;12.050;2024-03-29T00:09:09;2.77;;;0.90;;
13122;SDS011;6627;50.920;12.050;2024-03-29T00:11:35;1.83;;;1.20;;
13122;SDS011;6627;50.920;12.050;2024-03-29T00:14:02;2.77;;;0.80;;
13122;SDS011;6627;50.920;12.050;2024-03-29T00:16:28;4.00;;;1.13;;
13122;SDS011;6627;50.920;12.050;2024-03-29T00:18:55;3.97;;;1.17;;
13122;SDS011;6627;50.920;12.050;2024-03-29T00:21:21;3.83;;;1.40;;
13122;SDS011;6627;50.920;12.050;2024-03-29T00:23:49;3.80;;;1.40;;
13122;SDS011;6627;50.920;12.050;2024-03-29T00:26:15;2.80;;;1.10;;
13122;SDS011;6627;50.920;12.050;2024-03-29T00:28:42;2.73;;;1.10;;
13122;SDS011;6627;50.920;12.050;2024-03-29T00:31:08;1.97;;;0.90;;
13122;SDS011;6627;50.920;12.050;2024-03-29T00:33:35;1.73;;;0.90;;
13122;SDS011;6627;50.920;12.050;2024-03-29T00:36:01;3.17;;;0.80;;
13122;SDS011;6627;50.920;12.050;2024-03-29T00:38:28;3.90;;;0.90;;
13122;SDS011;6627;50.920;12.050;2024-03-29T00:40:56;2.20;;;1.10;;
13122;SDS011;6627;50.920;12.050;2024-03-29T00:43:22;3.33;;;1.43;;
13122;SDS011;6627;50.920;12.050;2024-03-29T00:45:49;2.97;;;1.07;;
13122;SDS011;6627;50.920;12.050;2024-03-29T00:48:15;2.73;;;0.90;;
13122;SDS011;6627;50.920;12.050;2024-03-29T00:50:45;1.90;;;0.90;;
13122;SDS011;6627;50.920;12.050;2024-03-29T00:53:11;1.53;;;0.90;;
13122;SDS011;6627;50.920;12.050;2024-03-29T00:55:37;1.30;;;0.90;;
13122;SDS011;6627;50.920;12.050;2024-03-29T00:58:05;2.63;;;1.00;;
13122;SDS011;6627;50.920;12.050;2024-03-29T01:00:32;4.30;;;1.13;;
13122;SDS011;6627;50.920;12.050;2024-03-29T01:02:58;2.67;;;1.00;;
13122;SDS011;6627;50.920;12.050;2024-03-29T01:05:25;4.27;;;0.90;;
13122;SDS011;6627;50.920;12.050;2024-03-29T01:07:51;1.40;;;1.03;;
13122;SDS011;6627;50.920;12.050;2024-03-29T01:10:18;3.30;;;1.10;;
13122;SDS011;6627;50.920;12.050;2024-03-29T01:12:44;1.50;;;0.80;;
13122;SDS011;6627;50.920;12.050;2024-03-29T01:15:12;2.73;;;1.20;;
13122;SDS011;6627;50.920;12.050;2024-03-29T01:17:39;1.70;;;1.10;;
13122;SDS011;6627;50.920;12.050;2024-03-29T01:20:06;3.53;;;1.20;;
13122;SDS011;6627;50.920;12.050;2024-03-29T01:22:33;2.57;;;0.90;;
13122;SDS011;6627;50.920;12.050;2024-03-29T01:24:59;2.13;;;1.00;;
13122;SDS011;6627;50.920;12.050;2024-03-29T01:27:26;3.47;;;1.10;;
13122;SDS011;6627;50.920;12.050;2024-03-29T01:29:52;2.70;;;0.77;;
13122;SDS011;6627;50.920;12.050;2024-03-29T01:32:20;2.50;;;1.00;;
13122;SDS011;6627;50.920;12.050;2024-03-29T01:34:47;2.73;;;1.00;;
13122;SDS011;6627;50.920;12.050;2024-03-29T01:37:13;2.37;;;1.17;;
13122;SDS011;6627;50.920;12.050;2024-03-29T01:39:40;2.67;;;1.17;;
13122;SDS011;6627;50.920;12.050;2024-03-29T01:42:06;2.53;;;1.30;;
13122;SDS011;6627;50.920;12.050;2024-03-29T01:44:33;2.17;;;1.13;;
13122;SDS011;6627;50.920;12.050;2024-03-29T01:47:01;1.63;;;1.10;;
13122;SDS011;6627;50.920;12.050;2024-03-29T01:49:30;4.73;;;1.10;;
13122;SDS011;6627;50.920;12.050;2024-03-29T01:51:58;5.97;;;1.40;;
13122;SDS011;6627;50.920;12.050;2024-03-29T01:54:26;3.70;;;1.27;;
13122;SDS011;6627;50.920;12.050;2024-03-29T01:56:54;1.87;;;1.07;;
13122;SDS011;6627;50.920;12.050;2024-03-29T01:59:22;2.73;;;1.13;;
13122;SDS011;6627;50.920;12.050;2024-03-29T02:01:50;1.77;;;1.27;;
13122;SDS011;6627;50.920;12.050;2024-03-29T02:04:17;4.20;;;1.10;;
13122;SDS011;6627;50.920;12.050;2024-03-29T02:06:47;2.67;;;1.10;;
13122;SDS011;6627;50.920;12.050;2024-03-29T02:09:14;1.90;;;0.90;;
13122;SDS011;6627;50.920;12.050;2024-03-29T02:11:41;1.67;;;1.10;;
13122;SDS011;6627;50.920;12.050;2024-03-29T02:14:09;3.10;;;1.10;;
13122;SDS011;6627;50.920;12.050;2024-03-29T02:16:36;3.17;;;1.50;;
13122;SDS011;6627;50.920;12.050;2024-03-29T02:23:06;2.27;;;1.10;;
13122;SDS011;6627;50.920;12.050;2024-03-29T02:25:38;3.17;;;1.20;;
13122;SDS011;6627;50.920;12.050;2024-03-29T02:28:06;3.00;;;1.43;;
13122;SDS011;6627;50.920;12.050;2024-03-29T02:30:33;2.90;;;1.30;;
13122;SDS011;6627;50.920;12.050;2024-03-29T02:33:00;4.17;;;1.07;;
13122;SDS011;6627;50.920;12.050;2024-03-29T02:35:28;5.23;;;1.80;;
13122;SDS011;6627;50.920;12.050;2024-03-29T02:37:56;5.53;;;1.47;;
13122;SDS011;6627;50.920;12.050;2024-03-29T02:40:24;3.70;;;1.40;;
13122;SDS011;6627;50.920;12.050;2024-03-29T02:42:52;2.97;;;1.40;;
13122;SDS011;6627;50.920;12.050;2024-03-29T02:45:19;3.13;;;1.40;;
13122;SDS011;6627;50.920;12.050;2024-03-29T02:47:47;3.27;;;1.20;;
13122;SDS011;6627;50.920;12.050;2024-03-29T02:50:14;1.83;;;1.13;;
13122;SDS011;6627;50.920;12.050;2024-03-29T02:52:42;2.60;;;1.30;;
13122;SDS011;6627;50.920;12.050;2024-03-29T02:55:09;3.23;;;1.37;;
13122;SDS011;6627;50.920;12.050;2024-03-29T02:57:36;1.47;;;1.10;;
13122;SDS011;6627;50.920;12.050;2024-03-29T03:00:06;2.50;;;1.03;;
13122;SDS011;6627;50.920;12.050;2024-03-29T03:02:36;5.53;;;1.40;;
13122;SDS011;6627;50.920;12.050;2024-03-29T03:05:05;4.67;;;1.20;;
13122;SDS011;6627;50.920;12.050;2024-03-29T03:07:34;3.77;;;1.37;;
13122;SDS011;6627;50.920;12.050;2024-03-29T03:10:20;2.70;;;1.20;;
13122;SDS011;6627;50.920;12.050;2024-03-29T03:13:05;2.37;;;1.10;;
13122;SDS011;6627;50.920;12.050;2024-03-29T03:15:34;2.60;;;1.53;;
13122;SDS011;6627;50.920;12.050;2024-03-29T03:18:01;3.03;;;1.10;;
13122;SDS011;6627;50.920;12.050;2024-03-29T03:20:27;1.93;;;0.97;;
13122;SDS011;6627;50.920;12.050;2024-03-29T03:22:56;2.03;;;1.10;;
13122;SDS011;6627;50.920;12.050;2024-03-29T03:25:24;1.40;;;1.00;;
13122;SDS011;6627;50.920;12.050;2024-03-29T03:27:52;2.13;;;0.87;;
13122;SDS011;6627;50.920;12.050;2024-03-29T03:30:20;4.53;;;2.17;;
13122;SDS011;6627;50.920;12.050;2024-03-29T03:32:47;3.27;;;1.70;;
13122;SDS011;6627;50.920;12.050;2024-03-29T03:35:15;3.83;;;1.87;;
13122;SDS011;6627;50.920;12.050;2024-03-29T03:37:42;2.43;;;1.20;;
13122;SDS011;6627;50.920;12.050;2024-03-29T03:40:10;3.23;;;1.30;;
13122;SDS011;6627;50.920;12.050;2024-03-29T03:42:37;3.60;;;1.23;;
13122;SDS011;6627;50.920;12.050;2024-03-29T03:45:04;5.83;;;1.20;;
13122;SDS011;6627;50.920;12.050;2024-03-29T03:47:31;1.70;;;1.40;;
13122;SDS011;6627;50.920;12.050;2024-03-29T03:49:59;3.07;;;1.50;;
13122;SDS011;6627;50.920;12.050;2024-03-29T03:52:26;2.70;;;1.33;;
13122;SDS011;6627;50.920;12.050;2024-03-29T03:54:53;3.60;;;1.43;;
13122;SDS011;6627;50.920;12.050;2024-03-29T03:57:19;2.90;;;1.50;;
13122;SDS011;6627;50.920;12.050;2024-03-29T03:59:48;3.23;;;1.93;;
13122;SDS011;6627;50.920;12.050;2024-03-29T04:02:15;4.90;;;2.13;;
13122;SDS011;6627;50.920;12.050;2024-03-29T04:04:42;5.77;;;2.40;;
13122;SDS011;6627;50.920;12.050;2024-03-29T04:07:16;3.27;;;2.33;;
13122;SDS011;6627;50.920;12.050;2024-03-29T04:09:44;4.00;;;1.90;;
13122;SDS011;6627;50.920;12.050;2024-03-29T04:12:11;4.50;;;1.60;;
13122;SDS011;6627;50.920;12.050;2024-03-29T04:14:38;2.27;;;1.60;;
13122;SDS011;6627;50.920;12.050;2024-03-29T04:17:04;2.80;;;1.70;;
13122;SDS011;6627;50.920;12.050;2024-03-29T04:19:32;2.53;;;1.57;;
13122;SDS011;6627;50.920;12.050;2024-03-29T04:21:58;2.73;;;1.23;;
13122;SDS011;6627;50.920;12.050;2024-03-29T04:24:28;2.63;;;1.43;;
13122;SDS011;6627;50.920;12.050;2024-03-29T04:26:56;2.53;;;1.83;;
13122;SDS011;6627;50.920;12.050;2024-03-29T04:29:23;3.47;;;1.93;;
13122;SDS011;6627;50.920;12.050;2024-03-29T04:31:50;3.40;;;1.97;;
13122;SDS011;6627;50.920;12.050;2024-03-29T04:34:17;2.43;;;1.70;;
13122;SDS011;6627;50.920;12.050;2024-03-29T04:36:44;4.93;;;2.03;;
13122;SDS011;6627;50.920;12.050;2024-03-29T04:39:11;2.10;;;1.27;;
13122;SDS011;6627;50.920;12.050;2024-03-29T04:41:39;2.73;;;1.50;;
13122;SDS011;6627;50.920;12.050;2024-03-29T04:44:07;2.03;;;1.40;;
13122;SDS011;6627;50.920;12.050;2024-03-29T04:46:35;2.33;;;1.37;;
13122;SDS011;6627;50.920;12.050;2024-03-29T04:49:02;1.77;;;1.30;;
13122;SDS011;6627;50.920;12.050;2024-03-29T04:51:31;4.03;;;1.73;;
13122;SDS011;6627;50.920;12.050;2024-03-29T04:53:58;2.10;;;1.40;;
13122;SDS011;6627;50.920;12.050;2024-03-29T04:56:26;3.20;;;1.50;;
13122;SDS011;6627;50.920;12.050;2024-03-29T04:58:55;3.30;;;2.40;;
13122;SDS011;6627;50.920;12.050;2024-03-29T05:01:23;4.57;;;3.73;;
13122;SDS011;6627;50.920;12.050;2024-03-29T05:03:50;12.90;;;11.47;;
13122;SDS011;6627;50.920;12.050;2024-03-29T05:06:18;18.70;;;16.03;;
13122;SDS011;6627;50.920;12.050;2024-03-29T05:08:45;7.60;;;6.63;;
13122;SDS011;6627;50.920;12.050;2024-03-29T05:11:13;4.60;;;2.30;;
13122;SDS011;6627;50.920;12.050;2024-03-29T05:13:40;4.77;;;1.90;;
13122;SDS011;6627;50.920;12.050;2024-03-29T05:16:09;4.23;;;1.40;;
13122;SDS011;6627;50.920;12.050;2024-03-29T05:18:36;4.03;;;1.97;;
13122;SDS011;6627;50.920;12.050;2024-03-29T05:21:04;2.90;;;1.30;;
13122;SDS011;6627;50.920;12.050;2024-03-29T05:23:33;2.33;;;1.40;;
13122;SDS011;6627;50.920;12.050;2024-03-29T05:26:00;2.80;;;1.63;;
13122;SDS011;6627;50.920;12.050;2024-03-29T05:28:27;3.07;;;1.60;;
13122;SDS011;6627;50.920;12.050;2024-03-29T05:30:55;3.10;;;1.63;;
13122;SDS011;6627;50.920;12.050;2024-03-29T05:33:38;2.77;;;1.60;;
13122;SDS011;6627;50.920;12.050;2024-03-29T05:36:06;2.20;;;1.53;;
13122;SDS011;6627;50.920;12.050;2024-03-29T05:38:36;1.73;;;1.30;;
13122;SDS011;6627;50.920;12.050;2024-03-29T05:41:03;1.97;;;1.30;;
13122;SDS011;6627;50.920;12.050;2024-03-29T05:43:31;2.57;;;1.40;;
13122;SDS011;6627;50.920;12.050;2024-03-29T05:45:58;1.97;;;1.40;;
13122;SDS011;6627;50.920;12.050;2024-03-29T05:48:27;2.10;;;1.40;;
13122;SDS011;6627;50.920;12.050;2024-03-29T05:50:57;1.40;;;1.30;;
13122;SDS011;6627;50.920;12.050;2024-03-29T05:53:24;2.30;;;1.43;;
13122;SDS011;6627;50.920;12.050;2024-03-29T05:55:52;3.80;;;1.40;;
13122;SDS011;6627;50.920;12.050;2024-03-29T05:58:19;4.60;;;1.47;;
13122;SDS011;6627;50.920;12.050;2024-03-29T06:00:46;1.13;;;1.00;;
13122;SDS011;6627;50.920;12.050;2024-03-29T06:03:14;4.10;;;1.30;;
13122;SDS011;6627;50.920;12.050;2024-03-29T06:05:42;3.27;;;1.33;;
13122;SDS011;6627;50.920;12.050;2024-03-29T06:08:11;2.53;;;1.30;;
13122;SDS011;6627;50.920;12.050;2024-03-29T06:10:39;3.67;;;1.40;;
13122;SDS011;6627;50.920;12.050;2024-03-29T06:13:06;1.30;;;1.03;;
13122;SDS011;6627;50.920;12.050;2024-03-29T06:15:43;2.63;;;1.40;;
13122;SDS011;6627;50.920;12.050;2024-03-29T06:18:28;1.73;;;1.33;;
13122;SDS011;6627;50.920;12.050;2024-03-29T06:20:55;1.70;;;1.20;;
13122;SDS011;6627;50.920;12.050;2024-03-29T06:23:24;1.70;;;1.30;;
13122;SDS011;6627;50.920;12.050;2024-03-29T06:25:51;1.63;;;1.10;;
13122;SDS011;6627;50.920;12.050;2024-03-29T06:28:18;1.63;;;1.37;;
13122;SDS011;6627;50.920;12.050;2024-03-29T06:30:46;1.57;;;1.20;;
13122;SDS011;6627;50.920;12.050;2024-03-29T06:33:13;1.57;;;1.00;;
13122;SDS011;6627;50.920;12.050;2024-03-29T06:35:40;1.23;;;1.13;;
13122;SDS011;6627;50.920;12.050;2024-03-29T06:38:07;2.73;;;1.20;;
13122;SDS011;6627;50.920;12.050;2024-03-29T06:40:36;2.40;;;1.50;;
13122;SDS011;6627;50.920;12.050;2024-03-29T06:43:04;2.07;;;1.20;;
13122;SDS011;6627;50.920;12.050;2024-03-29T06:45:33;1.73;;;1.20;;
13122;SDS011;6627;50.920;12.050;2024-03-29T06:48:01;1.87;;;0.90;;
13122;SDS011;6627;50.920;12.050;2024-03-29T06:50:28;1.20;;;1.00;;
13122;SDS011;6627;50.920;12.050;2024-03-29T06:52:56;4.23;;;1.40;;
13122;SDS011;6627;50.920;12.050;2024-03-29T06:55:24;1.27;;;1.17;;
13122;SDS011;6627;50.920;12.050;2024-03-29T06:57:54;1.27;;;1.10;;
13122;SDS011;6627;50.920;12.050;2024-03-29T07:00:21;2.60;;;1.30;;
13122;SDS011;6627;50.920;12.050;2024-03-29T07:02:48;2.63;;;1.40;;
13122;SDS011;6627;50.920;12.050;2024-03-29T07:05:16;3.33;;;1.40;;
13122;SDS011;6627;50.920;12.050;2024-03-29T07:07:43;1.97;;;0.97;;
13122;SDS011;6627;50.920;12.050;2024-03-29T07:10:12;0.87;;;0.87;;
13122;SDS011;6627;50.920;12.050;2024-03-29T07:12:40;1.30;;;0.90;;
13122;SDS011;6627;50.920;12.050;2024-03-29T07:15:10;1.10;;;1.00;;
13122;SDS011;6627;50.920;12.050;2024-03-29T07:17:38;1.10;;;0.97;;
13122;SDS011;6627;50.920;12.050;2024-03-29T07:20:06;1.30;;;1.00;;
13122;SDS011;6627;50.920;12.050;2024-03-29T07:22:34;1.50;;;0.90;;
13122;SDS011;6627;50.920;12.050;2024-03-29T07:25:02;4.63;;;1.27;;
13122;SDS011;6627;50.920;12.050;2024-03-29T07:27:31;1.73;;;1.10;;
13122;SDS011;6627;50.920;12.050;2024-03-29T07:30:01;1.20;;;1.03;;
13122;SDS011;6627;50.920;12.050;2024-03-29T07:32:31;1.83;;;1.20;;
13122;SDS011;6627;50.920;12.050;2024-03-29T07:34:58;2.53;;;1.30;;
13122;SDS011;6627;50.920;12.050;2024-03-29T07:37:25;2.63;;;1.20;;
13122;SDS011;6627;50.920;12.050;2024-03-29T07:39:52;1.10;;;1.00;;
13122;SDS011;6627;50.920;12.050;2024-03-29T07:42:20;1.00;;;0.90;;
13122;SDS011;6627;50.920;12.050;2024-03-29T07:44:47;2.57;;;1.27;;
13122;SDS011;6627;50.920;12.050;2024-03-29T07:47:15;4.17;;;1.47;;
13122;SDS011;6627;50.920;12.050;2024-03-29T07:49:44;1.97;;;1.30;;
13122;SDS011;6627;50.920;12.050;2024-03-29T07:52:12;1.73;;;1.20;;
13122;SDS011;6627;50.920;12.050;2024-03-29T07:54:39;1.60;;;1.30;;
13122;SDS011;6627;50.920;12.050;2024-03-29T07:57:09;1.47;;;0.90;;
13122;SDS011;6627;50.920;12.050;2024-03-29T07:59:36;2.73;;;0.97;;
13122;SDS011;6627;50.920;12.050;2024-03-29T08:02:04;3.17;;;1.87;;
13122;SDS011;6627;50.920;12.050;2024-03-29T08:04:32;1.63;;;1.20;;
13122;SDS011;6627;50.920;12.050;2024-03-29T08:07:02;1.63;;;1.03;;
13122;SDS011;6627;50.920;12.050;2024-03-29T08:09:29;1.43;;;1.10;;
13122;SDS011;6627;50.920;12.050;2024-03-29T08:11:57;1.20;;;1.10;;
13122;SDS011;6627;50.920;12.050;2024-03-29T08:14:25;0.93;;;0.87;;
13122;SDS011;6627;50.920;12.050;2024-03-29T08:16:53;1.60;;;0.90;;
13122;SDS011;6627;50.920;12.050;2024-03-29T08:19:21;1.97;;;1.10;;
13122;SDS011;6627;50.920;12.050;2024-03-29T08:21:48;1.50;;;0.97;;
13122;SDS011;6627;50.920;12.050;2024-03-29T08:24:17;2.50;;;1.20;;
13122;SDS011;6627;50.920;12.050;2024-03-29T08:26:44;1.80;;;1.03;;
13122;SDS011;6627;50.920;12.050;2024-03-29T08:29:11;2.90;;;1.10;;
13122;SDS011;6627;50.920;12.050;2024-03-29T08:31:39;1.47;;;0.90;;
13122;SDS011;6627;50.920;12.050;2024-03-29T08:34:06;1.10;;;0.83;;
13122;SDS011;6627;50.920;12.050;2024-03-29T08:36:38;1.37;;;1.10;;
13122;SDS011;6627;50.920;12.050;2024-03-29T08:39:05;1.50;;;1.00;;
13122;SDS011;6627;50.920;12.050;2024-03-29T08:41:34;1.57;;;1.13;;
13122;SDS011;6627;50.920;12.050;2024-03-29T08:44:01;0.90;;;0.80;;
13122;SDS011;6627;50.920;12.050;2024-03-29T08:46:28;1.40;;;0.90;;
13122;SDS011;6627;50.920;12.050;2024-03-29T08:48:55;2.40;;;2.20;;
13122;SDS011;6627;50.920;12.050;2024-03-29T08:51:23;2.13;;;1.77;;
13122;SDS011;6627;50.920;12.050;2024-03-29T08:53:50;2.63;;;1.30;;
13122;SDS011;6627;50.920;12.050;2024-03-29T08:56:17;0.93;;;0.83;;
13122;SDS011;6627;50.920;12.050;2024-03-29T08:58:46;1.00;;;0.80;;
13122;SDS011;6627;50.920;12.050;2024-03-29T09:01:14;1.23;;;0.80;;
13122;SDS011;6627;50.920;12.050;2024-03-29T09:03:42;1.63;;;0.90;;
13122;SDS011;6627;50.920;12.050;2024-03-29T09:06:10;1.57;;;0.90;;
13122;SDS011;6627;50.920;12.050;2024-03-29T09:08:37;1.47;;;0.87;;
13122;SDS011;6627;50.920;12.050;2024-03-29T09:11:04;1.93;;;1.10;;
13122;SDS011;6627;50.920;12.050;2024-03-29T09:13:34;1.67;;;1.00;;
13122;SDS011;6627;50.920;12.050;2024-03-29T09:16:03;0.97;;;0.90;;
13122;SDS011;6627;50.920;12.050;2024-03-29T09:18:31;1.00;;;0.90;;
13122;SDS011;6627;50.920;12.050;2024-03-29T09:20:58;0.80;;;0.80;;
13122;SDS011;6627;50.920;12.050;2024-03-29T09:23:26;1.03;;;0.93;;
13122;SDS011;6627;50.920;12.050;2024-03-29T09:25:55;1.13;;;1.00;;
13122;SDS011;6627;50.920;12.050;2024-03-29T09:28:22;2.53;;;0.90;;
13122;SDS011;6627;50.920;12.050;2024-03-29T09:30:56;0.87;;;0.70;;
13122;SDS011;6627;50.920;12.050;2024-03-29T09:33:26;1.07;;;0.80;;
13122;SDS011;6627;50.920;12.050;2024-03-29T09:35:53;1.43;;;1.20;;
13122;SDS011;6627;50.920;12.050;2024-03-29T09:38:22;2.60;;;1.17;;
13122;SDS011;6627;50.920;12.050;2024-03-29T09:40:50;2.17;;;1.13;;
13122;SDS011;6627;50.920;12.050;2024-03-29T09:43:30;1.67;;;1.00;;
13122;SDS011;6627;50.920;12.050;2024-03-29T09:45:57;2.50;;;1.00;;
13122;SDS011;6627;50.920;12.050;2024-03-29T09:48:27;2.57;;;1.10;;
13122;SDS011;6627;50.920;12.050;2024-03-29T09:51:02;1.13;;;0.90;;
13122;SDS011;6627;50.920;12.050;2024-03-29T09:53:32;1.33;;;0.83;;
13122;SDS011;6627;50.920;12.050;2024-03-29T09:56:02;1.40;;;0.80;;
13122;SDS011;6627;50.920;12.050;2024-03-29T09:58:31;0.87;;;0.70;;
13122;SDS011;6627;50.920;12.050;2024-03-29T10:00:58;1.40;;;1.00;;
13122;SDS011;6627;50.920;12.050;2024-03-29T10:03:30;7.20;;;1.10;;
13122;SDS011;6627;50.920;12.050;2024-03-29T10:06:01;0.83;;;0.80;;
13122;SDS011;6627;50.920;12.050;2024-03-29T10:08:29;1.57;;;1.07;;
13122;SDS011;6627;50.920;12.050;2024-03-29T10:10:57;1.67;;;1.00;;
13122;SDS011;6627;50.920;12.050;2024-03-29T10:13:25;3.83;;;0.97;;
13122;SDS011;6627;50.920;12.050;2024-03-29T10:15:53;1.80;;;0.90;;
13122;SDS011;6627;50.920;12.050;2024-03-29T10:18:22;0.90;;;0.77;;
13122;SDS011;6627;50.920;12.050;2024-03-29T10:20:59;1.20;;;0.90;;
13122;SDS011;6627;50.920;12.050;2024-03-29T10:23:30;1.37;;;1.00;;
13122;SDS011;6627;50.920;12.050;2024-03-29T10:26:00;1.67;;;0.83;;
13122;SDS011;6627;50.920;12.050;2024-03-29T10:28:30;1.77;;;1.10;;
13122;SDS011;6627;50.920;12.050;2024-03-29T10:31:00;3.40;;;1.20;;
13122;SDS011;6627;50.920;12.050;2024-03-29T10:33:29;1.67;;;1.10;;
13122;SDS011;6627;50.920;12.050;2024-03-29T10:35:57;1.20;;;1.10;;
13122;SDS011;6627;50.920;12.050;2024-03-29T10:38:30;5.23;;;1.40;;
13122;SDS011;6627;50.920;12.050;2024-03-29T10:40:58;1.17;;;1.07;;
13122;SDS011;6627;50.920;12.050;2024-03-29T10:43:26;1.00;;;1.00;;
13122;SDS011;6627;50.920;12.050;2024-03-29T10:45:54;4.50;;;0.93;;
13122;SDS011;6627;50.920;12.050;2024-03-29T10:48:25;1.17;;;0.90;;
13122;SDS011;6627;50.920;12.050;2024-03-29T10:50:54;1.77;;;1.10;;
13122;SDS011;6627;50.920;12.050;2024-03-29T10:53:24;1.90;;;1.10;;
13122;SDS011;6627;50.920;12.050;2024-03-29T10:55:54;5.13;;;1.07;;
13122;SDS011;6627;50.920;12.050;2024-03-29T10:58:25;1.40;;;1.20;;
13122;SDS011;6627;50.920;12.050;2024-03-29T11:01:01;2.53;;;1.10;;
13122;SDS011;6627;50.920;12.050;2024-03-29T11:03:36;2.17;;;1.17;;
13122;SDS011;6627;50.920;12.050;2024-03-29T11:06:07;0.97;;;0.90;;
13122;SDS011;6627;50.920;12.050;2024-03-29T11:08:43;2.00;;;0.90;;
13122;SDS011;6627;50.920;12.050;2024-03-29T11:11:13;1.13;;;0.80;;
13122;SDS011;6627;50.920;12.050;2024-03-29T11:13:44;1.30;;;1.00;;
13122;SDS011;6627;50.920;12.050;2024-03-29T11:16:19;1.60;;;1.20;;
13122;SDS011;6627;50.920;12.050;2024-03-29T11:18:46;2.40;;;0.90;;
13122;SDS011;6627;50.920;12.050;2024-03-29T11:21:15;0.97;;;0.87;;
13122;SDS011;6627;50.920;12.050;2024-03-29T11:23:49;2.50;;;1.00;;
13122;SDS011;6627;50.920;12.050;2024-03-29T11:26:18;5.67;;;1.00;;
13122;SDS011;6627;50.920;12.050;2024-03-29T11:28:48;0.70;;;0.70;;
13122;SDS011;6627;50.920;12.050;2024-03-29T11:31:16;0.73;;;0.73;;
13122;SDS011;6627;50.920;12.050;2024-03-29T11:33:52;0.70;;;0.70;;
13122;SDS011;6627;50.920;12.050;2024-03-29T11:36:24;1.83;;;1.13;;
13122;SDS011;6627;50.920;12.050;2024-03-29T11:38:58;2.37;;;1.20;;
13122;SDS011;6627;50.920;12.050;2024-03-29T11:41:25;3.50;;;1.23;;
13122;SDS011;6627;50.920;12.050;2024-03-29T11:43:55;1.30;;;1.00;;
13122;SDS011;6627;50.920;12.050;2024-03-29T11:46:24;1.67;;;1.27;;
13122;SDS011;6627;50.920;12.050;2024-03-29T11:48:52;2.03;;;1.00;;
13122;SDS011;6627;50.920;12.050;2024-03-29T11:51:20;1.50;;;1.00;;
13122;SDS011;6627;50.920;12.050;2024-03-29T11:53:49;1.10;;;1.00;;
13122;SDS011;6627;50.920;12.050;2024-03-29T11:56:19;2.63;;;1.10;;
13122;SDS011;6627;50.920;12.050;2024-03-29T11:58:47;1.50;;;0.90;;
13122;SDS011;6627;50.920;12.050;2024-03-29T12:01:15;1.77;;;0.97;;
13122;SDS011;6627;50.920;12.050;2024-03-29T12:03:43;3.23;;;0.90;;
13122;SDS011;6627;50.920;12.050;2024-03-29T12:06:11;2.40;;;0.93;;
13122;SDS011;6627;50.920;12.050;2024-03-29T12:08:42;4.80;;;1.20;;
13122;SDS011;6627;50.920;12.050;2024-03-29T12:11:10;1.60;;;0.87;;
13122;SDS011;6627;50.920;12.050;2024-03-29T12:13:40;1.63;;;1.20;;
13122;SDS011;6627;50.920;12.050;2024-03-29T12:16:07;1.93;;;1.20;;
13122;SDS011;6627;50.920;12.050;2024-03-29T12:18:37;4.83;;;1.33;;
13122;SDS011;6627;50.920;12.050;2024-03-29T12:21:05;3.57;;;1.50;;
13122;SDS011;6627;50.920;12.050;2024-03-29T12:23:31;2.37;;;1.47;;
13122;SDS011;6627;50.920;12.050;2024-03-29T12:25:59;1.90;;;1.40;;
13122;SDS011;6627;50.920;12.050;2024-03-29T12:28:26;4.50;;;1.47;;
13122;SDS011;6627;50.920;12.050;2024-03-29T12:30:57;3.80;;;1.67;;
13122;SDS011;6627;50.920;12.050;2024-03-29T12:33:24;1.37;;;1.07;;
13122;SDS011;6627;50.920;12.050;2024-03-29T12:35:52;2.83;;;1.37;;
13122;SDS011;6627;50.920;12.050;2024-03-29T12:38:21;1.67;;;1.33;;
13122;SDS011;6627;50.920;12.050;2024-03-29T12:40:50;3.00;;;1.20;;
13122;SDS011;6627;50.920;12.050;2024-03-29T12:43:19;2.97;;;1.17;;
13122;SDS011;6627;50.920;12.050;2024-03-29T12:45:48;2.40;;;1.20;;
13122;SDS011;6627;50.920;12.050;2024-03-29T12:48:20;3.97;;;1.63;;
13122;SDS011;6627;50.920;12.050;2024-03-29T12:50:49;4.97;;;1.50;;
13122;SDS011;6627;50.920;12.050;2024-03-29T12:53:17;5.07;;;1.50;;
13122;SDS011;6627;50.920;12.050;2024-03-29T12:55:46;6.80;;;2.73;;
13122;SDS011;6627;50.920;12.050;2024-03-29T12:58:14;2.10;;;1.40;;
13122;SDS011;6627;50.920;12.050;2024-03-29T13:00:45;3.47;;;1.57;;
13122;SDS011;6627;50.920;12.050;2024-03-29T13:03:13;4.03;;;1.70;;
13122;SDS011;6627;50.920;12.050;2024-03-29T13:05:42;4.43;;;1.90;;
13122;SDS011;6627;50.920;12.050;2024-03-29T13:08:10;2.90;;;1.50;;
13122;SDS011;6627;50.920;12.050;2024-03-29T13:10:41;1.43;;;1.20;;
13122;SDS011;6627;50.920;12.050;2024-03-29T13:13:09;1.73;;;1.20;;
13122;SDS011;6627;50.920;12.050;2024-03-29T13:15:38;1.90;;;1.30;;
13122;SDS011;6627;50.920;12.050;2024-03-29T13:18:07;1.60;;;1.10;;
13122;SDS011;6627;50.920;12.050;2024-03-29T13:20:35;4.23;;;1.37;;
13122;SDS011;6627;50.920;12.050;2024-03-29T13:23:07;1.33;;;1.10;;
13122;SDS011;6627;50.920;12.050;2024-03-29T13:25:35;2.57;;;1.10;;
13122;SDS011;6627;50.920;12.050;2024-03-29T13:28:04;2.27;;;1.30;;
13122;SDS011;6627;50.920;12.050;2024-03-29T13:30:32;1.87;;;1.20;;
13122;SDS011;6627;50.920;12.050;2024-03-29T13:33:02;1.80;;;0.90;;
13122;SDS011;6627;50.920;12.050;2024-03-29T13:35:30;1.03;;;0.93;;
13122;SDS011;6627;50.920;12.050;2024-03-29T13:38:00;1.40;;;0.97;;
13122;SDS011;6627;50.920;12.050;2024-03-29T13:40:29;1.47;;;0.80;;
13122;SDS011;6627;50.920;12.050;2024-03-29T13:42:58;0.67;;;0.67;;
13122;SDS011;6627;50.920;12.050;2024-03-29T13:45:25;0.60;;;0.60;;
13122;SDS011;6627;50.920;12.050;2024-03-29T13:47:53;1.20;;;0.70;;
13122;SDS011;6627;50.920;12.050;2024-03-29T13:50:21;2.27;;;0.90;;
13122;SDS011;6627;50.920;12.050;2024-03-29T13:52:48;1.67;;;0.80;;
13122;SDS011;6627;50.920;12.050;2024-03-29T13:55:17;1.27;;;0.73;;
13122;SDS011;6627;50.920;12.050;2024-03-29T13:57:45;1.30;;;1.20;;
13122;SDS011;6627;50.920;12.050;2024-03-29T14:00:13;1.23;;;0.90;;
13122;SDS011;6627;50.920;12.050;2024-03-29T14:02:43;1.10;;;1.00;;
13122;SDS011;6627;50.920;12.050;2024-03-29T14:05:11;1.73;;;1.10;;
13122;SDS011;6627;50.920;12.050;2024-03-29T14:07:49;2.40;;;1.13;;
13122;SDS011;6627;50.920;12.050;2024-03-29T14:10:17;0.60;;;0.60;;
13122;SDS011;6627;50.920;12.050;2024-03-29T14:12:46;2.03;;;0.70;;
13122;SDS011;6627;50.920;12.050;2024-03-29T14:15:16;0.83;;;0.70;;
13122;SDS011;6627;50.920;12.050;2024-03-29T14:17:44;1.07;;;0.70;;
13122;SDS011;6627;50.920;12.050;2024-03-29T14:20:11;0.80;;;0.70;;
13122;SDS011;6627;50.920;12.050;2024-03-29T14:22:39;1.67;;;1.00;;
13122;SDS011;6627;50.920;12.050;2024-03-29T14:25:06;0.70;;;0.70;;
13122;SDS011;6627;50.920;12.050;2024-03-29T14:27:36;2.83;;;0.80;;
13122;SDS011;6627;50.920;12.050;2024-03-29T14:30:14;0.50;;;0.50;;
13122;SDS011;6627;50.920;12.050;2024-03-29T14:32:45;1.57;;;0.60;;
13122;SDS011;6627;50.920;12.050;2024-03-29T14:35:14;0.43;;;0.43;;
13122;SDS011;6627;50.920;12.050;2024-03-29T14:37:43;1.00;;;0.60;;
13122;SDS011;6627;50.920;12.050;2024-03-29T14:40:11;0.50;;;0.40;;
13122;SDS011;6627;50.920;12.050;2024-03-29T14:42:40;2.37;;;0.60;;
13122;SDS011;6627;50.920;12.050;2024-03-29T14:45:08;1.00;;;0.63;;
13122;SDS011;6627;50.920;12.050;2024-03-29T14:47:39;0.70;;;0.70;;
13122;SDS011;6627;50.920;12.050;2024-03-29T14:50:06;0.70;;;0.70;;
13122;SDS011;6627;50.920;12.050;2024-03-29T14:52:35;0.60;;;0.60;;
13122;SDS011;6627;50.920;12.050;2024-03-29T14:55:03;0.70;;;0.70;;
13122;SDS011;6627;50.920;12.050;2024-03-29T14:57:31;1.17;;;0.80;;
13122;SDS011;6627;50.920;12.050;2024-03-29T14:59:58;0.60;;;0.60;;